createdAt,value
2018-07-17T00:00:16.019Z,93.80
2018-07-17T00:02:44.536Z,93.90
2018-07-17T00:05:13.085Z,93.90
2018-07-17T00:07:41.646Z,93.80
2018-07-17T00:10:10.302Z,93.60
2018-07-17T00:12:39.582Z,93.80
2018-07-17T00:15:08.252Z,93.90
2018-07-17T00:17:37.588Z,93.80
2018-07-17T00:20:06.186Z,93.80
2018-07-17T00:22:34.768Z,93.80
2018-07-17T00:25:03.593Z,93.70
2018-07-17T00:27:32.737Z,93.80
2018-07-17T00:30:01.268Z,93.90
2018-07-17T00:32:29.762Z,93.60
2018-07-17T00:34:58.302Z,94.20
2018-07-17T00:39:55.029Z,93.90
2018-07-17T00:42:23.546Z,93.60
2018-07-17T00:44:52.094Z,93.60
2018-07-17T00:47:20.642Z,93.80
2018-07-17T00:49:49.203Z,94.00
2018-07-17T00:52:17.806Z,94.10
2018-07-17T00:54:46.422Z,94.20
2018-07-17T00:57:15.150Z,94.30
2018-07-17T00:59:43.768Z,94.40
2018-07-17T01:13:03.694Z,94.20
2018-07-17T01:15:35.406Z,93.90
2018-07-17T01:18:04.088Z,94.20
2018-07-17T01:20:32.798Z,93.90
2018-07-17T01:23:01.428Z,93.80
2018-07-17T01:25:30.063Z,93.70
2018-07-17T01:27:58.742Z,93.90
2018-07-17T01:30:27.342Z,93.60
2018-07-17T01:32:55.979Z,93.40
2018-07-17T01:35:24.736Z,93.70
2018-07-17T01:37:53.453Z,94.10
2018-07-17T01:42:51.179Z,94.20
2018-07-17T01:45:19.804Z,94.20
2018-07-17T01:47:48.442Z,93.90
2018-07-17T01:50:17.156Z,93.90
2018-07-17T01:52:45.887Z,93.80
2018-07-17T01:55:14.557Z,94.00
2018-07-17T01:57:43.357Z,94.40
2018-07-17T02:00:12.050Z,94.30
2018-07-17T02:02:40.696Z,94.80
2018-07-17T02:05:09.220Z,95.00
2018-07-17T02:10:06.657Z,94.80
2018-07-17T02:12:35.362Z,94.90
2018-07-17T02:15:04.060Z,94.90
2018-07-17T02:17:32.804Z,95.00
2018-07-17T02:20:01.407Z,95.00
2018-07-17T02:22:30.381Z,95.00
2018-07-17T02:24:59.129Z,95.00
2018-07-17T02:27:27.834Z,94.90
2018-07-17T02:29:56.635Z,94.30
2018-07-17T02:32:25.454Z,94.20
2018-07-17T02:34:54.099Z,94.20
2018-07-17T02:37:22.820Z,94.00
2018-07-17T02:39:51.512Z,94.00
2018-07-17T02:42:20.261Z,94.50
2018-07-17T02:44:49.042Z,94.60
2018-07-17T02:47:17.827Z,94.40
2018-07-17T02:49:46.588Z,94.40
2018-07-17T02:52:15.211Z,94.90
2018-07-17T02:54:43.969Z,94.50
2018-07-17T02:57:12.590Z,94.60
2018-07-17T03:02:09.609Z,94.20
2018-07-17T03:04:38.357Z,94.00
2018-07-17T03:07:07.123Z,93.90
2018-07-17T03:09:35.767Z,93.80
2018-07-17T03:12:04.414Z,93.70
2018-07-17T03:14:33.235Z,93.30
2018-07-17T03:17:02.098Z,93.30
2018-07-17T03:19:30.891Z,93.40
2018-07-17T03:21:59.611Z,93.50
2018-07-17T03:24:28.424Z,93.80
2018-07-17T03:26:57.086Z,93.80
2018-07-17T03:31:54.042Z,93.30
2018-07-17T03:34:22.720Z,93.00
2018-07-17T03:36:51.424Z,93.20
2018-07-17T03:39:20.217Z,93.00
2018-07-17T03:41:48.904Z,92.70
2018-07-17T03:44:17.627Z,93.20
2018-07-17T03:46:46.260Z,92.80
2018-07-17T03:49:14.988Z,92.20
2018-07-17T03:51:43.763Z,92.60
2018-07-17T03:54:12.493Z,92.30
2018-07-17T03:56:41.259Z,92.50
2018-07-17T03:59:10.035Z,92.30
2018-07-17T04:01:38.855Z,92.60
2018-07-17T04:04:07.553Z,92.40
2018-07-17T04:06:36.259Z,92.20
2018-07-17T04:09:06.471Z,92.00
2018-07-17T04:11:35.179Z,92.00
2018-07-17T04:14:04.062Z,91.70
2018-07-17T04:16:32.823Z,91.80
2018-07-17T04:19:01.587Z,91.80
2018-07-17T04:21:30.319Z,91.70
2018-07-17T04:23:59.136Z,91.90
2018-07-17T04:26:27.927Z,91.20
2018-07-17T04:28:56.607Z,90.70
2018-07-17T04:31:25.424Z,91.00
2018-07-17T04:33:54.172Z,90.90
2018-07-17T04:36:23.018Z,91.10
2018-07-17T04:38:51.662Z,91.20
2018-07-17T04:41:20.476Z,91.50
2018-07-17T04:43:49.152Z,91.60
2018-07-17T04:46:17.858Z,92.00
2018-07-17T04:48:46.630Z,92.20
2018-07-17T04:51:15.398Z,92.20
2018-07-17T04:53:44.138Z,92.20
2018-07-17T04:56:12.887Z,92.60
2018-07-17T04:58:41.576Z,92.60
2018-07-17T05:01:10.262Z,92.50
2018-07-17T05:03:39.102Z,92.60
2018-07-17T05:08:36.262Z,91.90
2018-07-17T05:11:04.972Z,91.90
2018-07-17T05:13:33.729Z,91.90
2018-07-17T05:16:03.575Z,91.50
2018-07-17T05:18:32.381Z,91.80
2018-07-17T05:21:01.160Z,91.20
2018-07-17T05:23:29.975Z,91.10
2018-07-17T05:25:58.984Z,91.10
2018-07-17T05:28:27.678Z,90.70
2018-07-17T05:30:56.448Z,90.00
2018-07-17T05:33:25.146Z,88.60
2018-07-17T05:35:53.824Z,88.30
2018-07-17T05:38:22.628Z,88.90
2018-07-17T05:40:51.386Z,88.00
2018-07-17T05:43:20.194Z,86.30
2018-07-17T05:45:48.940Z,87.60
2018-07-17T05:48:17.654Z,86.70
2018-07-17T05:50:46.450Z,87.90
2018-07-17T05:53:15.212Z,88.90
2018-07-17T05:55:44.104Z,88.90
2018-07-17T05:58:12.661Z,89.20
2018-07-17T06:00:41.895Z,89.20
2018-07-17T06:03:10.608Z,89.70
2018-07-17T06:05:39.479Z,88.70
2018-07-17T06:08:08.208Z,90.10
2018-07-17T06:10:37.020Z,90.30
2018-07-17T06:13:05.808Z,90.70
2018-07-17T06:15:35.195Z,90.50
2018-07-17T06:18:04.059Z,89.50
2018-07-17T06:20:32.845Z,88.50
2018-07-17T06:23:01.483Z,87.80
2018-07-17T06:25:30.217Z,89.70
2018-07-17T06:27:58.961Z,90.60
2018-07-17T06:30:27.783Z,89.90
2018-07-17T06:32:56.552Z,89.40
2018-07-17T06:35:25.332Z,88.50
2018-07-17T06:37:54.159Z,88.30
2018-07-17T06:40:22.842Z,86.50
2018-07-17T06:42:52.186Z,84.10
2018-07-17T06:45:21.010Z,83.00
2018-07-17T06:47:49.765Z,80.30
2018-07-17T06:50:18.756Z,79.50
2018-07-17T06:52:47.505Z,78.20
2018-07-17T06:55:16.211Z,79.10
2018-07-17T06:57:44.904Z,78.70
2018-07-17T07:00:13.732Z,77.10
2018-07-17T07:02:42.506Z,78.20
2018-07-17T07:05:11.268Z,78.40
2018-07-17T07:07:39.837Z,77.10
2018-07-17T07:10:08.496Z,77.60
2018-07-17T07:12:37.267Z,76.80
2018-07-17T07:15:06.182Z,75.70
2018-07-17T07:17:35.000Z,76.70
2018-07-17T07:20:03.993Z,77.90
2018-07-17T07:22:32.814Z,77.70
2018-07-17T07:25:01.941Z,76.90
2018-07-17T07:27:30.677Z,75.70
2018-07-17T07:29:59.236Z,76.70
2018-07-17T07:32:27.975Z,75.90
2018-07-17T07:34:56.707Z,77.00
2018-07-17T07:37:25.554Z,77.00
2018-07-17T07:39:54.307Z,76.00
2018-07-17T07:42:23.137Z,74.10
2018-07-17T07:44:51.877Z,74.70
2018-07-17T07:49:49.287Z,73.50
2018-07-17T07:52:18.039Z,72.30
2018-07-17T07:54:46.804Z,72.70
2018-07-17T07:57:15.484Z,72.60
2018-07-17T07:59:44.251Z,72.40
2018-07-17T08:02:13.095Z,71.10
2018-07-17T08:04:41.948Z,71.50
2018-07-17T08:07:11.043Z,72.20
2018-07-17T08:09:39.790Z,69.80
2018-07-17T08:12:08.656Z,69.10
2018-07-17T08:14:37.394Z,69.90
2018-07-17T08:17:06.157Z,70.50
2018-07-17T08:19:35.014Z,67.40
2018-07-17T08:22:03.918Z,68.40
2018-07-17T08:24:34.328Z,69.50
2018-07-17T08:27:03.082Z,69.40
2018-07-17T08:29:32.275Z,66.70
2018-07-17T08:32:00.829Z,66.60
2018-07-17T08:34:29.568Z,67.00
2018-07-17T08:36:58.279Z,68.00
2018-07-17T08:39:27.072Z,65.90
2018-07-17T08:41:55.796Z,67.10
2018-07-17T08:44:24.545Z,68.00
2018-07-17T08:46:53.251Z,66.60
2018-07-17T08:49:21.992Z,67.60
2018-07-17T08:51:50.827Z,67.00
2018-07-17T08:54:19.795Z,67.40
2018-07-17T08:56:48.651Z,67.90
2018-07-17T08:59:17.292Z,66.60
2018-07-17T09:01:46.207Z,68.30
2018-07-17T09:04:14.947Z,69.40
2018-07-17T09:06:43.785Z,67.00
2018-07-17T09:09:12.542Z,67.30
2018-07-17T09:11:41.204Z,67.60
2018-07-17T09:14:09.890Z,67.40
2018-07-17T09:16:38.639Z,67.50
2018-07-17T09:19:07.407Z,66.40
2018-07-17T09:21:36.123Z,67.70
2018-07-17T09:24:04.842Z,65.50
2018-07-17T09:26:33.586Z,68.80
2018-07-17T09:29:02.545Z,68.00
2018-07-17T09:31:31.558Z,67.40
2018-07-17T09:34:00.150Z,68.10
2018-07-17T09:36:28.905Z,66.00
2018-07-17T09:38:57.697Z,67.20
2018-07-17T09:41:26.162Z,64.60
2018-07-17T09:43:54.704Z,65.20
2018-07-17T09:46:23.417Z,65.10
2018-07-17T09:48:52.169Z,63.20
2018-07-17T09:51:20.983Z,62.80
2018-07-17T09:53:49.815Z,60.20
2018-07-17T09:56:18.518Z,63.10
2018-07-17T09:58:47.208Z,63.30
2018-07-17T10:02:20.051Z,64.30
2018-07-17T10:04:48.730Z,64.90
2018-07-17T10:07:17.437Z,63.30
2018-07-17T10:09:46.114Z,64.50
2018-07-17T10:12:14.796Z,64.70
2018-07-17T10:14:43.552Z,65.80
2018-07-17T10:17:12.359Z,66.30
2018-07-17T10:19:41.119Z,64.90
2018-07-17T10:22:09.885Z,63.20
2018-07-17T10:24:38.658Z,63.10
2018-07-17T10:27:07.327Z,61.90
2018-07-17T10:29:36.166Z,62.20
2018-07-17T10:32:04.958Z,63.60
2018-07-17T10:34:33.715Z,63.70
2018-07-17T10:37:02.417Z,63.50
2018-07-17T10:39:31.158Z,63.00
2018-07-17T10:41:59.764Z,63.40
2018-07-17T10:44:28.455Z,63.50
2018-07-17T10:46:57.192Z,64.30
2018-07-17T10:49:25.913Z,63.80
2018-07-17T10:51:54.590Z,64.10
2018-07-17T10:54:23.332Z,64.00
2018-07-17T10:56:52.132Z,65.70
2018-07-17T10:59:20.802Z,63.40
2018-07-17T11:01:49.594Z,64.40
2018-07-17T11:04:18.284Z,63.20
2018-07-17T11:06:47.092Z,61.30
2018-07-17T11:09:15.910Z,58.80
2018-07-17T11:11:44.626Z,59.00
2018-07-17T11:14:13.489Z,56.50
2018-07-17T11:16:42.256Z,56.60
2018-07-17T11:19:10.865Z,55.60
2018-07-17T11:21:39.500Z,53.20
2018-07-17T11:24:08.190Z,51.90
2018-07-17T11:26:36.912Z,51.40
2018-07-17T11:29:05.570Z,50.90
2018-07-17T11:31:34.273Z,50.40
2018-07-17T11:34:02.940Z,51.00
2018-07-17T11:36:31.669Z,51.00
2018-07-17T11:39:00.406Z,53.20
2018-07-17T11:41:29.139Z,50.80
2018-07-17T11:43:57.790Z,53.10
2018-07-17T11:46:26.590Z,49.80
2018-07-17T11:48:55.379Z,49.80
2018-07-17T11:51:24.091Z,50.10
2018-07-17T11:53:52.947Z,48.90
2018-07-17T11:56:21.755Z,47.70
2018-07-17T11:58:50.605Z,48.00
2018-07-17T12:01:19.651Z,47.40
2018-07-17T12:03:48.259Z,48.70
2018-07-17T12:06:16.783Z,47.30
2018-07-17T12:08:45.359Z,48.20
2018-07-17T12:13:42.232Z,46.80
2018-07-17T12:16:11.055Z,47.30
2018-07-17T12:18:39.812Z,46.30
2018-07-17T12:21:08.646Z,45.90
2018-07-17T12:23:37.457Z,46.90
2018-07-17T12:26:06.272Z,47.00
2018-07-17T12:28:35.051Z,45.60
2018-07-17T12:31:03.790Z,46.50
2018-07-17T12:33:32.762Z,46.00
2018-07-17T12:36:01.451Z,47.40
2018-07-17T12:38:30.227Z,48.40
2018-07-17T12:40:58.892Z,45.40
2018-07-17T12:43:27.607Z,47.70
2018-07-17T12:45:56.260Z,45.90
2018-07-17T12:48:24.981Z,44.30
2018-07-17T12:50:53.744Z,46.40
2018-07-17T12:53:22.540Z,43.40
2018-07-17T12:55:51.233Z,43.60
2018-07-17T13:00:48.203Z,45.00
2018-07-17T13:03:16.992Z,45.30
2018-07-17T13:05:45.825Z,45.30
2018-07-17T13:08:14.551Z,44.10
2018-07-17T13:10:43.358Z,45.80
2018-07-17T13:13:11.896Z,44.90
2018-07-17T13:15:40.581Z,45.20
2018-07-17T13:18:09.346Z,44.30
2018-07-17T13:20:38.130Z,44.90
2018-07-17T13:23:06.636Z,42.50
2018-07-17T13:25:35.527Z,42.70
2018-07-17T13:28:04.212Z,44.60
2018-07-17T13:30:32.994Z,44.30
2018-07-17T13:33:01.866Z,42.80
2018-07-17T13:35:30.623Z,41.60
2018-07-17T13:40:27.584Z,44.60
2018-07-17T13:42:56.273Z,45.00
2018-07-17T13:45:24.938Z,46.10
2018-07-17T13:47:53.689Z,47.80
2018-07-17T13:50:22.354Z,49.30
2018-07-17T13:52:51.046Z,47.70
2018-07-17T13:55:19.803Z,46.50
2018-07-17T13:57:48.554Z,46.60
2018-07-17T14:00:17.236Z,47.40
2018-07-17T14:05:14.168Z,51.50
2018-07-17T14:07:42.715Z,56.80
2018-07-17T14:10:11.514Z,62.10
2018-07-17T14:12:40.482Z,75.30
2018-07-17T14:15:09.244Z,80.30
2018-07-17T14:17:37.958Z,85.00
2018-07-17T14:20:06.573Z,88.00
2018-07-17T14:22:35.356Z,90.00
2018-07-17T14:25:03.935Z,89.30
2018-07-17T14:27:33.232Z,91.00
2018-07-17T14:30:01.983Z,91.40
2018-07-17T14:32:30.643Z,91.60
2018-07-17T14:34:59.370Z,91.80
2018-07-17T14:37:28.102Z,91.60
2018-07-17T14:39:56.772Z,89.80
2018-07-17T14:42:25.448Z,87.80
2018-07-17T14:44:54.153Z,88.10
2018-07-17T14:47:22.886Z,84.60
2018-07-17T14:49:51.529Z,84.00
2018-07-17T14:52:20.346Z,85.90
2018-07-17T14:54:49.088Z,84.50
2018-07-17T14:57:17.674Z,85.40
2018-07-17T15:04:42.893Z,82.80
2018-07-17T15:07:11.497Z,83.80
2018-07-17T15:09:40.754Z,83.80
2018-07-17T15:14:37.901Z,85.20
2018-07-17T15:17:06.612Z,83.80
2018-07-17T15:19:35.400Z,85.90
2018-07-17T15:22:07.130Z,83.50
2018-07-17T15:24:35.916Z,84.40
2018-07-17T15:27:04.653Z,82.90
2018-07-17T15:29:33.408Z,83.80
2018-07-17T15:32:02.100Z,82.50
2018-07-17T15:34:30.829Z,83.70
2018-07-17T15:39:27.948Z,82.90
2018-07-17T15:41:56.624Z,83.00
2018-07-17T15:44:25.290Z,83.50
2018-07-17T15:46:54.061Z,83.20
2018-07-17T15:49:22.645Z,83.40
2018-07-17T15:51:51.421Z,83.50
2018-07-17T15:54:20.075Z,82.20
2018-07-17T15:56:48.785Z,81.80
2018-07-17T15:59:17.520Z,82.00
2018-07-17T16:01:46.238Z,82.70
2018-07-17T16:04:14.761Z,80.50
2018-07-17T16:06:43.442Z,79.50
2018-07-17T16:09:12.144Z,78.30
2018-07-17T16:11:40.857Z,78.80
2018-07-17T16:16:38.011Z,78.00
2018-07-17T16:19:06.727Z,78.50
2018-07-17T16:24:03.870Z,75.50
2018-07-17T16:26:32.609Z,76.70
2018-07-17T16:29:01.289Z,76.80
2018-07-17T16:31:30.103Z,76.20
2018-07-17T16:33:58.862Z,77.10
2018-07-17T16:36:27.537Z,76.70
2018-07-17T16:38:56.294Z,77.30
2018-07-17T16:41:24.971Z,78.00
2018-07-17T16:43:53.737Z,78.00
2018-07-17T16:46:22.503Z,77.50
2018-07-17T16:48:51.250Z,77.40
2018-07-17T16:51:19.867Z,77.90
2018-07-17T16:53:48.595Z,78.30
2018-07-17T16:56:17.251Z,78.80
2018-07-17T16:58:45.929Z,78.30
2018-07-17T17:01:14.762Z,78.00
2018-07-17T17:03:43.522Z,77.80
2018-07-17T17:06:12.199Z,78.10
2018-07-17T17:08:40.916Z,77.50
2018-07-17T17:11:09.611Z,77.40
2018-07-17T17:13:38.451Z,78.10
2018-07-17T17:16:07.148Z,77.70
2018-07-17T17:18:35.860Z,77.20
2018-07-17T17:21:04.616Z,77.50
2018-07-17T17:23:33.167Z,77.60
2018-07-17T17:26:01.660Z,77.70
2018-07-17T17:28:30.543Z,76.90
2018-07-17T17:30:59.205Z,77.50
2018-07-17T17:33:27.699Z,76.30
2018-07-17T17:35:56.506Z,77.30
2018-07-17T17:38:25.295Z,77.70
2018-07-17T17:40:54.117Z,77.50
2018-07-17T17:43:22.815Z,76.80
2018-07-17T17:45:51.480Z,77.60
2018-07-17T17:48:20.143Z,78.20
2018-07-17T17:50:48.999Z,77.70
2018-07-17T17:53:17.754Z,78.30
2018-07-17T17:55:46.579Z,78.00
2018-07-17T17:58:15.439Z,78.00
2018-07-17T18:00:44.242Z,78.30
2018-07-17T18:03:13.172Z,79.00
2018-07-17T18:05:42.313Z,78.90
2018-07-17T18:08:11.590Z,78.60
2018-07-17T18:13:08.631Z,79.40
2018-07-17T18:15:37.556Z,78.60
2018-07-17T18:18:06.313Z,79.20
2018-07-17T18:20:35.183Z,79.50
2018-07-17T18:23:03.974Z,79.50
2018-07-17T18:25:32.871Z,78.20
2018-07-17T18:28:01.875Z,78.70
2018-07-17T18:30:30.435Z,78.70
2018-07-17T18:32:59.170Z,79.60
2018-07-17T18:35:27.797Z,79.70
2018-07-17T18:37:56.471Z,79.90
2018-07-17T18:42:53.695Z,78.70
2018-07-17T18:45:22.510Z,79.00
2018-07-17T18:47:51.271Z,79.10
2018-07-17T18:50:20.269Z,79.30
2018-07-17T18:52:49.126Z,79.30
2018-07-17T18:55:17.784Z,80.60
2018-07-17T18:57:46.491Z,79.40
2018-07-17T19:00:15.219Z,79.20
2018-07-17T19:02:44.142Z,80.30
2018-07-17T19:05:12.826Z,80.50
2018-07-17T19:07:41.553Z,80.90
2018-07-17T19:10:10.256Z,80.90
2018-07-17T19:12:39.123Z,81.90
2018-07-17T19:15:08.358Z,81.90
2018-07-17T19:17:37.320Z,82.20
2018-07-17T19:20:06.364Z,82.80
2018-07-17T19:22:35.373Z,83.30
2018-07-17T19:25:04.292Z,82.90
2018-07-17T19:27:33.721Z,83.10
2018-07-17T19:30:02.520Z,84.00
2018-07-17T19:32:31.409Z,83.90
2018-07-17T19:35:00.139Z,84.30
2018-07-17T19:39:57.203Z,84.70
2018-07-17T19:42:25.854Z,84.60
2018-07-17T19:44:55.423Z,85.50
2018-07-17T19:47:24.173Z,84.60
2018-07-17T19:49:52.888Z,85.90
2018-07-17T19:52:21.615Z,86.70
2018-07-17T19:54:50.432Z,86.90
2018-07-17T19:57:19.067Z,87.00
2018-07-17T19:59:48.473Z,86.50
2018-07-17T20:02:17.134Z,87.60
2018-07-17T20:04:45.870Z,88.10
2018-07-17T20:07:14.572Z,88.60
2018-07-17T20:09:43.427Z,88.30
2018-07-17T20:12:12.099Z,88.70
2018-07-17T20:14:40.935Z,89.00
2018-07-17T20:17:09.705Z,89.20
2018-07-17T20:19:38.461Z,89.40
2018-07-17T20:22:07.355Z,89.20
2018-07-17T20:24:36.505Z,89.20
2018-07-17T20:27:05.151Z,89.60
2018-07-17T20:29:33.835Z,89.60
2018-07-17T20:32:04.384Z,90.30
2018-07-17T20:34:33.012Z,90.20
2018-07-17T20:37:01.772Z,90.00
2018-07-17T20:39:30.542Z,89.80
2018-07-17T20:41:59.258Z,89.70
2018-07-17T20:44:28.092Z,89.60
2018-07-17T20:46:56.866Z,89.80
2018-07-17T20:49:25.531Z,90.10
2018-07-17T20:51:54.239Z,90.20
2018-07-17T20:54:22.898Z,90.10
2018-07-17T20:56:51.608Z,90.10
2018-07-17T20:59:20.842Z,88.20
2018-07-17T21:01:49.530Z,87.40
2018-07-17T21:04:18.210Z,86.50
2018-07-17T21:06:46.974Z,83.90
2018-07-17T21:09:15.592Z,81.20
2018-07-17T21:11:44.310Z,78.50
2018-07-17T21:14:12.965Z,78.40
2018-07-17T21:16:41.610Z,77.70
2018-07-17T21:19:10.279Z,76.10
2018-07-17T21:21:38.960Z,75.30
2018-07-17T21:24:07.766Z,74.00
2018-07-17T21:26:36.481Z,74.10
2018-07-17T21:29:05.154Z,73.70
2018-07-17T21:31:33.896Z,73.00
2018-07-17T21:34:02.685Z,72.50
2018-07-17T21:36:31.316Z,71.90
2018-07-17T21:39:00.210Z,72.20
2018-07-17T21:41:28.847Z,71.30
2018-07-17T21:43:57.546Z,71.90
2018-07-17T21:46:26.339Z,71.90
2018-07-17T21:48:55.012Z,71.50
2018-07-17T21:51:23.781Z,71.30
2018-07-17T21:53:52.867Z,70.80
2018-07-17T21:56:21.547Z,70.10
2018-07-17T21:58:50.233Z,69.60
2018-07-17T22:01:18.940Z,69.80
2018-07-17T22:03:47.697Z,70.00
2018-07-17T22:06:16.552Z,70.10
2018-07-17T22:08:45.159Z,69.90
2018-07-17T22:11:13.871Z,69.20
2018-07-17T22:13:43.259Z,69.70
2018-07-17T22:16:11.950Z,68.60
2018-07-17T22:18:40.673Z,68.40
2018-07-17T22:21:09.569Z,68.00
2018-07-17T22:23:38.302Z,68.00
2018-07-17T22:26:07.165Z,68.20
2018-07-17T22:28:35.861Z,67.10
2018-07-17T22:31:04.792Z,67.20
2018-07-17T22:33:33.519Z,67.70
2018-07-17T22:36:02.414Z,68.20
2018-07-17T22:38:31.061Z,69.50
2018-07-17T22:40:59.792Z,70.60
2018-07-17T22:43:28.495Z,72.50
2018-07-17T22:45:57.115Z,73.20
2018-07-17T22:48:25.739Z,74.10
2018-07-17T22:50:54.422Z,74.50
2018-07-17T22:53:23.053Z,75.10
2018-07-17T22:55:51.689Z,75.30
2018-07-17T22:58:20.391Z,74.80
2018-07-17T23:00:49.109Z,74.80
2018-07-17T23:03:17.771Z,75.60
2018-07-17T23:05:46.443Z,74.70
2018-07-17T23:08:15.139Z,74.40
2018-07-17T23:10:43.903Z,73.70
2018-07-17T23:13:12.688Z,73.40
2018-07-17T23:15:41.412Z,74.10
2018-07-17T23:18:10.113Z,75.90
2018-07-17T23:20:38.801Z,76.90
2018-07-17T23:23:07.611Z,75.80
2018-07-17T23:25:36.347Z,77.90
2018-07-17T23:28:05.993Z,75.80
2018-07-17T23:30:34.623Z,77.10
2018-07-17T23:33:03.438Z,78.60
2018-07-17T23:38:00.448Z,80.10
2018-07-17T23:40:28.919Z,80.70
2018-07-17T23:42:57.584Z,81.10
2018-07-17T23:45:26.324Z,81.10
2018-07-17T23:47:54.919Z,81.30
2018-07-17T23:50:23.712Z,81.10
2018-07-17T23:52:52.511Z,82.20
2018-07-17T23:55:21.234Z,81.80
2018-07-17T23:57:50.003Z,82.30
